Time;durP1;ratioP1;P1;durP2;ratioP2;P2;SDS_P1;SDS_P2;PMS_P1;PMS_P2;Temp;Humidity;BMP_temperature;BMP_pressure;BME280_temperature;BME280_humidity;BME280_pressure;Samples;Min_cycle;Max_cycle;Signal;HPM_P1;HPM_P2
2023/08/19 00:00:32;;;;;;;;;9.00;9.00;;;;;29.24;44.38;100806.97;5075965;28;45203;-75
2023/08/19 00:02:57;;;;;;;;;11.00;11.00;;;;;29.25;44.28;100810.50;5076110;28;45245;-75
2023/08/19 00:05:23;;;;;;;;;7.00;7.00;;;;;29.19;44.46;100806.84;5075735;28;49017;-76
2023/08/19 00:07:48;;;;;;;;;10.00;10.00;;;;;29.13;44.51;100805.09;5075466;28;45365;-75
2023/08/19 00:10:13;;;;;;;;;10.67;10.67;;;;;29.23;44.30;100825.94;5075702;27;45347;-76
2023/08/19 00:12:39;;;;;;;;;14.33;12.00;;;;;29.25;44.91;100835.38;5075963;27;45280;-76
2023/08/19 00:15:04;;;;;;;;;10.00;10.00;;;;;29.26;44.19;100841.56;5057299;28;46946;-75
2023/08/19 00:17:30;;;;;;;;;10.00;9.67;;;;;29.21;44.40;100842.28;5075747;27;45377;-75
2023/08/19 00:19:55;;;;;;;;;10.00;9.67;;;;;29.19;44.53;100841.69;5075901;27;45445;-75
2023/08/19 00:22:20;;;;;;;;;12.00;12.00;;;;;29.26;44.36;100852.28;5075473;28;45301;-76
2023/08/19 00:24:46;;;;;;;;;13.33;11.67;;;;;29.23;44.56;100850.88;5075411;28;45986;-75
2023/08/19 00:27:13;;;;;;;;;11.67;10.00;;;;;29.22;44.87;100853.81;5075435;28;45495;-76
2023/08/19 00:29:38;;;;;;;;;12.67;10.67;;;;;29.25;44.51;100862.19;5075689;28;45466;-76
2023/08/19 00:32:04;;;;;;;;;9.67;8.00;;;;;29.26;44.35;100863.81;5057397;28;45408;-75
2023/08/19 00:34:29;;;;;;;;;12.67;12.67;;;;;29.26;44.58;100877.22;5075516;28;45590;-75
2023/08/19 00:36:56;;;;;;;;;9.33;9.33;;;;;29.15;44.11;100861.91;5075089;27;45392;-76
2023/08/19 00:39:21;;;;;;;;;9.00;9.00;;;;;29.21;44.50;100871.72;5075648;28;45273;-75
2023/08/19 00:41:48;;;;;;;;;10.33;9.67;;;;;29.22;44.82;100876.06;5075531;28;45386;-76
2023/08/19 00:44:13;;;;;;;;;13.00;13.00;;;;;29.26;44.59;100884.44;5075291;28;46140;-76
2023/08/19 00:46:39;;;;;;;;;11.00;9.67;;;;;29.23;44.49;100879.53;5075397;28;45360;-76
2023/08/19 00:49:05;;;;;;;;;10.00;10.00;;;;;29.26;44.34;100885.25;5075428;28;45485;-76
2023/08/19 00:51:30;;;;;;;;;11.67;10.00;;;;;29.24;44.62;100883.84;5076037;28;45403;-76
2023/08/19 00:53:56;;;;;;;;;14.33;11.67;;;;;29.21;44.55;100870.91;5078324;28;46508;-76
2023/08/19 00:56:22;;;;;;;;;9.67;9.67;;;;;29.25;44.81;100874.78;5078793;27;45406;-76
2023/08/19 00:58:47;;;;;;;;;9.00;9.00;;;;;29.22;44.68;100869.88;5078877;27;45229;-76
2023/08/19 01:01:12;;;;;;;;;9.00;9.00;;;;;29.30;44.39;100880.28;5078914;27;45288;-76
2023/08/19 01:03:38;;;;;;;;;12.00;10.33;;;;;29.28;44.37;100876.97;5078531;27;45331;-75
2023/08/19 01:06:28;;;;;;;;;12.00;12.00;;;;;29.22;44.44;100867.19;5078353;27;45300;-75
2023/08/19 01:09:09;;;;;;;;;11.00;10.33;;;;;29.25;44.76;100878.25;5078588;27;45223;-76
2023/08/19 01:11:42;;;;;;;;;10.33;10.33;;;;;29.28;44.82;100879.66;5078432;27;45284;-76
2023/08/19 01:14:18;;;;;;;;;10.33;9.67;;;;;29.28;44.54;100885.03;5078184;27;46603;-76
2023/08/19 01:16:50;;;;;;;;;9.00;8.67;;;;;29.23;44.47;100891.06;5078507;27;45362;-76
2023/08/19 01:19:23;;;;;;;;;9.00;9.00;;;;;29.23;44.47;100898.28;5078096;27;45398;-76
2023/08/19 01:21:57;;;;;;;;;11.00;11.00;;;;;29.23;44.58;100898.28;5078362;27;45342;-76
2023/08/19 01:24:25;;;;;;;;;7.33;6.00;;;;;29.24;44.01;100898.06;5060052;27;47589;-76
2023/08/19 01:26:50;;;;;;;;;9.00;9.00;;;;;29.24;44.72;100899.94;5060126;28;45388;-76
2023/08/19 01:29:16;;;;;;;;;10.33;10.33;;;;;29.24;44.74;100894.56;5078348;27;45668;-76
2023/08/19 01:31:41;;;;;;;;;10.33;10.33;;;;;29.27;44.68;100904.84;5078085;28;45539;-76
2023/08/19 01:34:07;;;;;;;;;11.00;11.00;;;;;29.11;44.30;100885.69;5076514;27;47917;-76
2023/08/19 01:36:41;;;;;;;;;11.00;10.00;;;;;29.23;44.70;100912.50;5077928;27;45732;-76
2023/08/19 01:39:10;;;;;;;;;11.33;9.33;;;;;29.27;44.50;100924.41;5078152;27;45372;-76
2023/08/19 01:41:37;;;;;;;;;10.67;10.67;;;;;29.23;44.67;100917.03;5060178;28;45569;-76
2023/08/19 01:44:03;;;;;;;;;10.33;10.33;;;;;29.23;44.72;100917.03;5076760;27;45497;-76
2023/08/19 01:46:29;;;;;;;;;13.00;11.00;;;;;29.23;44.47;100911.69;5077292;27;45227;-76
2023/08/19 01:48:54;;;;;;;;;10.67;10.67;;;;;29.25;44.75;100925.69;5077518;27;45386;-76
2023/08/19 01:51:21;;;;;;;;;8.67;8.00;;;;;29.21;44.52;100908.41;5059897;28;45271;-76
2023/08/19 01:53:46;;;;;;;;;10.00;9.33;;;;;29.28;44.95;100930.56;5077504;28;47053;-76
2023/08/19 01:56:12;;;;;;;;;7.67;7.67;;;;;29.26;44.40;100938.03;5076277;27;45419;-76
2023/08/19 01:58:37;;;;;;;;;10.67;10.67;;;;;29.25;44.23;100944.44;5077942;28;45329;-76
2023/08/19 02:01:03;;;;;;;;;12.33;10.33;;;;;29.27;44.54;100953.06;5075820;27;45632;-76
2023/08/19 02:03:28;;;;;;;;;10.00;10.00;;;;;29.25;44.65;100941.75;5074981;28;46747;-76
2023/08/19 02:05:53;;;;;;;;;10.00;10.00;;;;;29.24;44.45;100940.13;5077702;27;45396;-76
2023/08/19 02:08:19;;;;;;;;;10.33;10.33;;;;;29.25;44.56;100955.16;5076413;27;45387;-76
2023/08/19 02:10:44;;;;;;;;;11.33;11.33;;;;;29.25;44.25;100955.16;5062410;28;45538;-76
2023/08/19 02:13:10;;;;;;;;;16.33;12.00;;;;;29.10;44.83;100934.13;5059231;27;46954;-76
2023/08/19 02:15:35;;;;;;;;;7.33;7.33;;;;;29.27;44.25;100969.13;5059270;28;45305;-76
2023/08/19 02:18:01;;;;;;;;;9.00;9.00;;;;;29.21;44.53;100962.81;5059158;28;45432;-76
2023/08/19 02:20:26;;;;;;;;;9.00;9.00;;;;;29.22;44.35;100975.19;5077592;27;45375;-76
2023/08/19 02:22:54;;;;;;;;;11.00;10.00;;;;;29.16;44.60;100958.16;5058352;27;47642;-76
2023/08/19 02:25:19;;;;;;;;;13.33;11.00;;;;;29.22;44.47;100977.03;5058707;28;45495;-76
2023/08/19 02:27:44;;;;;;;;;11.00;9.00;;;;;29.18;44.59;100971.31;5077192;28;45411;-75
2023/08/19 02:30:10;;;;;;;;;9.00;9.00;;;;;29.26;44.69;100988.94;5059303;28;45540;-76
2023/08/19 02:32:37;;;;;;;;;11.33;11.00;;;;;29.26;44.70;100989.75;5076768;27;45443;-76
2023/08/19 02:35:03;;;;;;;;;9.00;9.00;;;;;29.23;44.54;100978.66;5058967;28;45391;-76
2023/08/19 02:37:28;;;;;;;;;12.67;11.67;;;;;29.19;44.56;100975.63;5077197;28;45378;-76
2023/08/19 02:39:54;;;;;;;;;9.67;9.67;;;;;29.21;44.66;100976.22;5058990;28;45427;-76
2023/08/19 02:42:19;;;;;;;;;11.33;10.33;;;;;29.11;44.83;100974.09;5076963;28;45396;-75
2023/08/19 02:44:44;;;;;;;;;8.33;8.33;;;;;29.21;44.34;100991.47;5076968;27;45270;-75
2023/08/19 02:47:09;;;;;;;;;8.00;8.00;;;;;29.27;44.12;101012.84;5076904;28;45395;-76
2023/08/19 02:49:36;;;;;;;;;10.00;10.00;;;;;29.22;44.52;100993.13;5059156;28;45658;-76
2023/08/19 02:52:02;;;;;;;;;9.67;9.33;;;;;29.21;44.26;100997.66;5076688;28;46694;-76
2023/08/19 02:54:27;;;;;;;;;8.67;8.67;;;;;29.25;44.21;101003.38;5075554;27;45349;-76
2023/08/19 02:56:53;;;;;;;;;10.67;10.00;;;;;29.25;44.37;101006.84;5075184;27;45261;-75
2023/08/19 02:59:18;;;;;;;;;9.00;9.00;;;;;29.20;44.24;100990.66;5058951;28;45655;-76
2023/08/19 03:01:44;;;;;;;;;8.00;8.00;;;;;29.25;44.35;100998.03;5076274;27;46762;-76
2023/08/19 03:04:09;;;;;;;;;2.00;2.00;;;;;29.24;44.30;100985.66;5075272;27;45651;-75
2023/08/19 03:06:34;;;;;;;;;11.67;11.67;;;;;29.20;44.31;100987.97;5076889;28;45229;-76
2023/08/19 03:08:59;;;;;;;;;8.67;8.67;;;;;29.25;44.57;100998.03;5076755;27;45249;-76
2023/08/19 03:11:25;;;;;;;;;9.67;9.67;;;;;29.22;44.30;101001.97;5058303;28;46020;-75
2023/08/19 03:13:50;;;;;;;;;10.33;10.33;;;;;29.14;44.03;100986.22;5058052;28;45451;-76
2023/08/19 03:16:16;;;;;;;;;12.00;9.67;;;;;29.24;43.94;101013.28;5058323;28;45296;-76
2023/08/19 03:18:42;;;;;;;;;11.33;11.33;;;;;29.25;44.54;101022.94;5075629;28;45716;-76
2023/08/19 03:21:07;;;;;;;;;9.67;9.67;;;;;29.26;44.37;101037.16;5058236;28;47959;-76
2023/08/19 03:23:32;;;;;;;;;9.00;9.00;;;;;29.26;44.51;101043.34;5076473;27;45435;-76
2023/08/19 03:25:58;;;;;;;;;11.67;9.00;;;;;29.20;44.37;101022.78;5058367;28;45468;-75
2023/08/19 03:28:24;;;;;;;;;10.00;9.33;;;;;29.24;44.15;101037.41;5058108;27;45392;-76
2023/08/19 03:30:49;;;;;;;;;8.67;8.67;;;;;29.26;44.34;101048.69;5057216;28;48909;-76
2023/08/19 03:33:15;;;;;;;;;11.00;11.00;;;;;29.24;44.20;101047.28;5058031;28;45340;-76
2023/08/19 03:35:40;;;;;;;;;9.00;8.00;;;;;29.25;44.46;101040.91;5057912;28;45358;-76
2023/08/19 03:38:05;;;;;;;;;8.00;8.00;;;;;29.26;43.89;101043.34;5058093;28;45396;-76
2023/08/19 03:40:31;;;;;;;;;8.00;8.00;;;;;29.26;44.36;101042.50;5076105;28;46852;-76
2023/08/19 03:42:56;;;;;;;;;12.33;11.00;;;;;29.25;44.30;101051.63;5076261;27;45348;-75
2023/08/19 03:45:21;;;;;;;;;8.67;8.00;;;;;29.21;44.52;101051.22;5056884;28;45266;-75
2023/08/19 03:47:47;;;;;;;;;11.00;11.00;;;;;29.20;44.17;101044.22;5058103;28;45665;-76
2023/08/19 03:50:12;;;;;;;;;9.00;9.00;;;;;29.21;44.18;101045.06;5057561;28;47004;-76
2023/08/19 03:52:38;;;;;;;;;8.00;7.33;;;;;29.25;44.16;101056.97;5054369;28;45627;-76
2023/08/19 03:55:03;;;;;;;;;10.00;9.00;;;;;29.25;43.97;101067.69;5037824;28;45437;-76
2023/08/19 03:57:29;;;;;;;;;11.00;9.33;;;;;29.22;44.18;101065.44;5055796;28;45465;-75
2023/08/19 03:59:54;;;;;;;;;10.33;10.33;;;;;29.26;44.15;101067.44;5055257;28;46306;-76
2023/08/19 04:02:19;;;;;;;;;9.33;9.33;;;;;29.27;44.05;101071.78;5037875;28;45515;-76
2023/08/19 04:05:02;;;;;;;;;9.00;9.00;;;;;29.28;44.12;101064.53;5054166;28;45399;-75
2023/08/19 04:07:28;;;;;;;;;7.33;7.33;;;;;29.25;43.81;101065.81;5055803;28;45459;-76
2023/08/19 04:09:55;;;;;;;;;7.67;7.67;;;;;29.28;44.70;101064.53;5057413;28;48383;-76
2023/08/19 04:12:21;;;;;;;;;10.00;10.00;;;;;29.22;44.22;101057.41;5075792;28;45459;-76
2023/08/19 04:14:46;;;;;;;;;10.33;8.67;;;;;29.23;43.69;101073.25;5057108;28;45360;-75
2023/08/19 04:17:12;;;;;;;;;8.00;8.00;;;;;29.25;44.41;101087.25;5057002;28;45570;-76
2023/08/19 04:19:38;;;;;;;;;9.00;9.00;;;;;29.21;44.06;101083.38;5075745;27;47288;-76
2023/08/19 04:22:03;;;;;;;;;9.33;9.33;;;;;29.22;44.28;101098.44;5075559;28;45550;-76
2023/08/19 04:24:28;;;;;;;;;8.00;8.00;;;;;29.21;44.50;101090.59;5075914;27;45305;-76
2023/08/19 04:26:54;;;;;;;;;9.00;8.67;;;;;29.22;44.31;101095.75;5059179;28;45320;-75
2023/08/19 04:29:19;;;;;;;;;7.67;7.67;;;;;29.20;44.27;101088.97;5060446;28;45489;-76
2023/08/19 04:31:45;;;;;;;;;8.33;8.33;;;;;29.24;44.41;101104.38;5079117;27;45349;-75
2023/08/19 04:34:10;;;;;;;;;9.00;9.00;;;;;29.20;44.36;101105.84;5078775;27;45337;-75
2023/08/19 04:36:35;;;;;;;;;10.33;9.67;;;;;29.18;44.25;101098.03;5079238;27;45535;-76
2023/08/19 04:39:00;;;;;;;;;9.67;9.67;;;;;29.22;44.73;101108.31;5060819;28;48267;-75
2023/08/19 04:41:27;;;;;;;;;10.00;8.67;;;;;29.21;43.90;101115.53;5077683;27;46016;-75
2023/08/19 04:43:52;;;;;;;;;8.33;8.33;;;;;29.11;44.59;101102.66;5078877;28;45376;-75
2023/08/19 04:46:18;;;;;;;;;6.33;6.00;;;;;29.22;44.50;101127.06;5079036;27;45343;-75
2023/08/19 04:48:43;;;;;;;;;8.00;8.00;;;;;29.23;44.32;101126.84;5060561;28;48130;-76
2023/08/19 04:51:08;;;;;;;;;10.00;9.33;;;;;29.22;44.44;101121.72;5079044;27;45188;-76
2023/08/19 04:53:34;;;;;;;;;8.00;7.67;;;;;29.22;44.21;101124.41;5057242;28;45318;-75
2023/08/19 04:56:01;;;;;;;;;7.33;7.33;;;;;29.24;43.97;101122.31;5057262;28;45569;-75
2023/08/19 04:58:27;;;;;;;;;7.00;7.00;;;;;29.25;43.67;101123.97;5058130;28;46665;-75
2023/08/19 05:00:52;;;;;;;;;7.00;7.00;;;;;29.23;44.10;101120.66;5056695;28;45379;-75
2023/08/19 05:03:17;;;;;;;;;8.33;8.33;;;;;29.22;44.14;101127.91;5057421;28;45375;-75
2023/08/19 05:05:43;;;;;;;;;10.00;10.00;;;;;29.23;44.17;101147.44;5058127;28;45371;-75
2023/08/19 05:08:08;;;;;;;;;7.00;7.00;;;;;29.10;44.28;101125.13;5058753;28;45446;-75
2023/08/19 05:10:34;;;;;;;;;9.67;8.00;;;;;29.25;44.07;101148.06;5060277;27;45968;-76
2023/08/19 05:13:00;;;;;;;;;8.33;7.67;;;;;29.23;44.11;101150.13;5060220;27;45454;-75
2023/08/19 05:15:25;;;;;;;;;7.00;7.00;;;;;29.20;44.09;101156.75;5060424;28;45337;-75
2023/08/19 05:17:50;;;;;;;;;7.00;7.00;;;;;29.23;44.32;101164.34;5059964;28;47201;-75
2023/08/19 05:20:16;;;;;;;;;10.00;9.00;;;;;29.19;44.23;101157.81;5059505;27;45408;-76
2023/08/19 05:22:41;;;;;;;;;9.00;9.00;;;;;29.23;44.28;101168.88;5078133;28;45324;-75
2023/08/19 05:25:08;;;;;;;;;8.33;8.33;;;;;29.23;44.10;101169.72;5078045;28;45557;-76
2023/08/19 05:27:34;;;;;;;;;10.00;10.00;;;;;29.22;44.04;101173.44;5077740;28;45685;-75
2023/08/19 05:29:59;;;;;;;;;8.00;8.00;;;;;29.25;43.83;101178.34;5078149;28;45398;-76
2023/08/19 05:32:24;;;;;;;;;7.00;7.00;;;;;29.21;44.36;101179.00;5078222;28;45653;-76
2023/08/19 05:34:50;;;;;;;;;9.67;9.67;;;;;29.16;44.67;101177.81;5060195;28;45608;-75
2023/08/19 05:37:15;;;;;;;;;10.00;8.33;;;;;29.24;44.02;101195.47;5077488;27;45972;-75
2023/08/19 05:39:40;;;;;;;;;8.00;8.00;;;;;29.23;44.31;101191.13;5077202;27;45339;-76
2023/08/19 05:42:06;;;;;;;;;8.00;8.00;;;;;29.19;44.37;101206.03;5059851;28;45356;-75
2023/08/19 05:44:32;;;;;;;;;8.33;8.33;;;;;29.26;44.21;101209.47;5078096;27;45625;-75
2023/08/19 05:46:57;;;;;;;;;8.67;8.67;;;;;29.23;43.97;101209.06;5078071;28;47079;-75
2023/08/19 05:49:23;;;;;;;;;7.00;7.00;;;;;29.24;44.25;101214.22;5077932;28;45376;-76
2023/08/19 05:51:48;;;;;;;;;6.67;6.67;;;;;29.25;44.55;101212.38;5077202;27;45344;-76
2023/08/19 05:54:13;;;;;;;;;8.67;8.67;;;;;29.24;44.44;101216.91;5076385;27;45449;-76
2023/08/19 05:56:39;;;;;;;;;10.00;9.00;;;;;29.22;43.83;101223.53;5077840;27;46511;-76
2023/08/19 05:59:04;;;;;;;;;7.67;7.00;;;;;29.26;44.33;101235.44;5077746;28;45354;-76
2023/08/19 06:01:30;;;;;;;;;8.00;8.00;;;;;29.29;44.20;101229.63;5077400;27;45417;-76
2023/08/19 06:03:55;;;;;;;;;8.67;8.67;;;;;29.38;44.27;101236.34;5076607;27;45359;-75
2023/08/19 06:06:20;;;;;;;;;9.33;8.33;;;;;29.39;43.64;101239.84;5059496;28;47467;-76
2023/08/19 06:08:46;;;;;;;;;6.00;6.00;;;;;29.46;43.77;101259.34;5077185;27;45289;-76
2023/08/19 06:11:11;;;;;;;;;7.67;7.67;;;;;29.47;43.81;101255.63;5059569;28;45458;-76
2023/08/19 06:13:37;;;;;;;;;7.00;6.33;;;;;29.60;43.67;101261.91;5077514;28;45535;-76
2023/08/19 06:16:04;;;;;;;;;8.00;7.00;;;;;29.66;43.75;101269.06;5059002;28;46659;-76
2023/08/19 06:18:33;;;;;;;;;7.33;7.33;;;;;29.70;43.68;101266.75;5077378;28;45264;-75
2023/08/19 06:21:00;;;;;;;;;7.67;7.67;;;;;29.77;43.67;101269.41;5058998;27;45427;-76
2023/08/19 06:23:25;;;;;;;;;7.67;7.00;;;;;29.92;43.23;101266.34;5077137;27;45364;-75
2023/08/19 06:25:52;;;;;;;;;7.33;6.33;;;;;30.09;43.31;101279.94;5077351;27;46319;-76
2023/08/19 06:28:19;;;;;;;;;7.00;7.00;;;;;30.14;43.11;101279.28;5059216;28;45899;-75
2023/08/19 06:30:46;;;;;;;;;7.00;7.00;;;;;30.29;42.33;101295.00;5076883;27;45365;-76
2023/08/19 06:33:12;;;;;;;;;8.33;8.33;;;;;30.39;42.44;101287.22;5058800;28;45396;-76
2023/08/19 06:35:38;;;;;;;;;6.67;6.67;;;;;30.60;42.35;101298.50;5076731;27;45439;-75
2023/08/19 06:38:09;;;;;;;;;6.67;6.67;;;;;30.79;41.71;101290.38;5058511;28;45403;-76
2023/08/19 06:40:37;;;;;;;;;6.33;6.33;;;;;31.01;41.21;101303.31;5059224;28;45356;-76
2023/08/19 06:43:06;;;;;;;;;7.00;7.00;;;;;31.26;41.33;101313.03;5058956;28;45734;-76
2023/08/19 06:45:31;;;;;;;;;7.33;6.33;;;;;31.41;40.84;101314.44;5076977;27;46706;-76
2023/08/19 06:47:59;;;;;;;;;7.33;7.33;;;;;31.51;41.03;101305.81;5058685;28;45375;-76
2023/08/19 06:50:27;;;;;;;;;6.00;6.00;;;;;31.69;40.87;101307.59;5076670;27;45506;-76
2023/08/19 06:52:52;;;;;;;;;7.33;7.33;;;;;31.91;40.39;101298.88;5076727;27;45363;-77
2023/08/19 06:55:18;;;;;;;;;8.67;7.33;;;;;32.00;40.08;101276.97;5075529;28;47701;-76
2023/08/19 06:57:50;;;;;;;;;8.67;7.00;;;;;32.12;39.74;101309.25;5076921;28;45331;-76
2023/08/19 07:00:16;;;;;;;;;6.67;6.67;;;;;31.93;39.92;101302.13;5076851;27;45281;-76
2023/08/19 07:02:42;;;;;;;;;5.00;5.00;;;;;31.85;40.08;101306.00;5058634;28;45354;-76
2023/08/19 07:05:13;;;;;;;;;6.33;6.00;;;;;31.71;39.92;101307.34;5076545;27;47801;-76
2023/08/19 07:07:43;;;;;;;;;6.67;6.67;;;;;31.53;40.02;101295.66;5076000;27;45201;-76
2023/08/19 07:10:09;;;;;;;;;4.67;4.67;;;;;31.40;40.38;101292.13;5076206;27;45400;-76
2023/08/19 07:12:35;;;;;;;;;6.33;6.00;;;;;31.33;40.49;101310.22;5057861;28;45377;-76
2023/08/19 07:15:01;;;;;;;;;6.67;6.67;;;;;31.22;40.26;101327.19;5076109;27;46729;-76
2023/08/19 07:17:29;;;;;;;;;6.00;6.00;;;;;31.05;40.52;101328.66;5057644;28;45348;-76
2023/08/19 07:19:55;;;;;;;;;5.67;5.67;;;;;30.97;41.15;101331.69;5058583;28;45326;-76
2023/08/19 07:22:23;;;;;;;;;5.00;5.00;;;;;30.85;41.37;101339.69;5057093;28;45211;-76
2023/08/19 07:24:51;;;;;;;;;4.67;4.67;;;;;30.78;41.11;101358.59;5076399;27;46983;-76
2023/08/19 07:27:19;;;;;;;;;7.00;7.00;;;;;30.72;41.47;101370.25;5076277;27;45464;-76
2023/08/19 07:29:46;;;;;;;;;5.67;4.33;;;;;30.62;41.31;101370.78;5076355;27;45440;-76
2023/08/19 07:32:13;;;;;;;;;7.67;6.67;;;;;30.56;41.37;101383.25;5076313;27;45460;-76
2023/08/19 07:34:39;;;;;;;;;6.00;6.00;;;;;30.49;41.86;101380.66;5076214;28;47508;-76
2023/08/19 07:37:04;;;;;;;;;8.33;6.67;;;;;30.42;42.02;101376.44;5075901;27;45288;-76
2023/08/19 07:39:30;;;;;;;;;4.33;4.33;;;;;30.42;41.97;101392.53;5058175;28;45419;-76
2023/08/19 07:41:56;;;;;;;;;5.00;5.00;;;;;30.36;42.18;101392.38;5058337;28;45591;-76
2023/08/19 07:44:21;;;;;;;;;6.67;6.67;;;;;30.29;41.82;101389.72;5057818;28;47923;-76
2023/08/19 07:46:47;;;;;;;;;6.00;6.00;;;;;30.22;42.07;101390.84;5057999;28;45493;-76
2023/08/19 07:49:12;;;;;;;;;6.00;6.00;;;;;30.23;42.29;101393.31;5057984;28;45294;-76
2023/08/19 07:51:37;;;;;;;;;7.67;6.33;;;;;30.15;42.14;101391.75;5057265;28;45629;-76
2023/08/19 07:54:03;;;;;;;;;9.00;6.00;;;;;30.11;42.11;101395.13;5075770;28;46464;-76
2023/08/19 07:56:28;;;;;;;;;6.67;6.67;;;;;30.08;42.03;101396.38;5076024;27;45230;-76
2023/08/19 07:58:54;;;;;;;;;5.67;5.67;;;;;30.11;41.88;101403.16;5075990;28;45364;-75
2023/08/19 08:01:19;;;;;;;;;7.00;7.00;;;;;30.04;42.25;101387.13;5073907;28;45359;-75
2023/08/19 08:03:45;;;;;;;;;8.00;8.00;;;;;30.02;42.50;101368.56;5075078;28;46398;-76
2023/08/19 08:06:11;;;;;;;;;5.33;5.33;;;;;30.01;42.59;101358.03;5057262;28;45379;-76
2023/08/19 08:08:37;;;;;;;;;5.00;5.00;;;;;29.98;42.46;101361.19;5075953;27;45339;-76
2023/08/19 08:11:03;;;;;;;;;5.67;5.67;;;;;29.94;42.71;101369.69;5075629;27;45476;-76
2023/08/19 08:13:28;;;;;;;;;6.33;6.33;;;;;29.92;42.44;101401.28;5057448;28;46147;-75
2023/08/19 08:15:54;;;;;;;;;7.00;7.00;;;;;29.94;42.45;101417.13;5057481;28;46264;-76
2023/08/19 08:18:19;;;;;;;;;6.00;6.00;;;;;29.90;42.67;101411.38;5076030;28;45340;-75
2023/08/19 08:20:44;;;;;;;;;6.00;6.00;;;;;29.90;42.68;101424.00;5075388;27;45535;-76
2023/08/19 08:23:10;;;;;;;;;6.00;6.00;;;;;29.91;42.66;101430.97;5075792;28;46282;-76
2023/08/19 08:25:37;;;;;;;;;6.00;6.00;;;;;29.93;42.78;101445.81;5075747;27;45348;-76
2023/08/19 08:28:02;;;;;;;;;6.33;6.33;;;;;29.88;42.73;101434.94;5075558;28;45435;-76
2023/08/19 08:30:28;;;;;;;;;6.00;6.00;;;;;29.87;42.77;101432.47;5057406;28;45633;-76
2023/08/19 08:32:53;;;;;;;;;6.00;5.00;;;;;29.89;42.72;101441.13;5074821;28;45356;-76
2023/08/19 08:35:18;;;;;;;;;5.00;5.00;;;;;29.87;42.71;101444.03;5075517;27;45321;-76
2023/08/19 08:37:44;;;;;;;;;4.33;4.33;;;;;29.92;42.66;101456.78;5075895;27;45309;-76
2023/08/19 08:40:10;;;;;;;;;5.00;5.00;;;;;29.91;42.95;101474.72;5075611;28;45607;-76
2023/08/19 08:42:35;;;;;;;;;7.00;5.00;;;;;29.92;43.01;101471.00;5056940;28;46565;-76
2023/08/19 08:45:01;;;;;;;;;6.00;6.00;;;;;29.87;42.84;101473.53;5075565;27;45403;-75
2023/08/19 08:47:27;;;;;;;;;7.00;5.00;;;;;29.89;43.20;101481.34;5057442;28;45359;-76
2023/08/19 08:49:53;;;;;;;;;6.67;6.67;;;;;29.92;42.92;101478.25;5056873;28;45622;-76
2023/08/19 08:52:20;;;;;;;;;7.33;5.67;;;;;29.89;42.84;101470.63;5074965;27;45595;-76
2023/08/19 08:54:53;;;;;;;;;6.33;5.67;;;;;29.94;42.50;101468.09;5075132;28;45272;-76
2023/08/19 08:57:19;;;;;;;;;6.67;6.67;;;;;29.92;42.78;101457.59;5075457;28;45319;-76
2023/08/19 08:59:44;;;;;;;;;5.00;5.00;;;;;29.93;42.86;101461.91;5073967;28;45537;-76
2023/08/19 09:02:13;;;;;;;;;6.33;6.33;;;;;29.94;42.78;101470.78;5075144;27;46408;-75
2023/08/19 09:04:44;;;;;;;;;6.00;5.67;;;;;30.00;42.76;101477.97;5074803;27;45289;-76
2023/08/19 09:07:15;;;;;;;;;6.00;6.00;;;;;30.04;42.66;101481.00;5075291;27;45331;-76
2023/08/19 09:09:45;;;;;;;;;6.00;6.00;;;;;30.05;42.54;101486.19;5056959;28;45430;-76
2023/08/19 09:12:12;;;;;;;;;5.67;5.67;;;;;30.07;42.63;101486.78;5075408;28;45526;-76
2023/08/19 09:14:45;;;;;;;;;4.67;4.67;;;;;30.14;42.58;101483.19;5078299;27;45473;-76
2023/08/19 09:17:14;;;;;;;;;3.33;3.33;;;;;30.13;42.70;101493.13;5078709;27;45254;-76
2023/08/19 09:19:40;;;;;;;;;6.00;6.00;;;;;30.18;42.46;101495.13;5078562;28;45210;-76
2023/08/19 09:22:21;;;;;;;;;5.00;5.00;;;;;30.20;42.34;101497.59;5078327;27;46371;-76
2023/08/19 09:24:46;;;;;;;;;4.33;4.33;;;;;30.17;42.40;101491.63;5078352;27;45411;-76
2023/08/19 09:27:12;;;;;;;;;5.00;5.00;;;;;30.14;42.27;101492.06;5078164;28;45264;-76
2023/08/19 09:29:47;;;;;;;;;5.33;5.33;;;;;30.21;42.51;101505.44;5078452;27;45506;-76
2023/08/19 09:32:12;;;;;;;;;6.33;5.67;;;;;30.22;42.74;101503.56;5077861;27;45566;-76
2023/08/19 09:34:38;;;;;;;;;5.67;5.67;;;;;30.23;42.23;101507.88;5078116;27;45309;-76
2023/08/19 09:37:03;;;;;;;;;5.00;5.00;;;;;30.19;42.21;101507.50;5078345;27;45376;-76
2023/08/19 09:39:35;;;;;;;;;6.00;5.33;;;;;30.15;42.39;101496.41;5078241;27;45304;-76
2023/08/19 09:42:00;;;;;;;;;8.00;5.67;;;;;30.16;42.66;101507.97;5078056;27;46853;-76
2023/08/19 09:44:30;;;;;;;;;5.00;4.33;;;;;30.17;42.40;101512.28;5077968;28;45384;-76
2023/08/19 09:46:56;;;;;;;;;5.00;5.00;;;;;30.21;42.93;101521.53;5078045;27;45229;-76
2023/08/19 09:49:22;;;;;;;;;6.00;6.00;;;;;30.22;42.54;101520.47;5078114;27;45318;-76
2023/08/19 09:51:57;;;;;;;;;5.33;5.33;;;;;30.15;42.37;101512.50;5077489;27;47513;-76
2023/08/19 09:54:23;;;;;;;;;5.33;5.33;;;;;30.13;42.38;101509.22;5077791;27;45498;-76
2023/08/19 09:56:56;;;;;;;;;5.00;5.00;;;;;30.15;42.25;101509.81;5077986;27;45301;-76
2023/08/19 09:59:23;;;;;;;;;7.00;7.00;;;;;30.12;42.31;101510.25;5077934;27;45346;-76
2023/08/19 10:01:51;;;;;;;;;5.00;5.00;;;;;30.17;42.68;101514.97;5077110;27;45524;-75
2023/08/19 10:04:17;;;;;;;;;5.33;5.33;;;;;30.15;42.52;101509.81;5077730;27;45367;-76
2023/08/19 10:06:47;;;;;;;;;5.00;5.00;;;;;30.13;42.82;101508.41;5076742;27;45473;-76
2023/08/19 10:09:17;;;;;;;;;5.00;5.00;;;;;30.17;43.05;101518.47;5078193;27;45270;-76
2023/08/19 10:11:43;;;;;;;;;4.67;4.67;;;;;30.15;42.50;101514.34;5077614;27;46309;-76
2023/08/19 10:14:11;;;;;;;;;5.67;5.67;;;;;30.12;42.77;101509.44;5077399;28;45233;-76
2023/08/19 10:16:44;;;;;;;;;3.00;3.00;;;;;30.18;42.58;101524.66;5077545;28;45362;-75
2023/08/19 10:19:16;;;;;;;;;4.67;4.67;;;;;30.18;42.33;101525.47;5077999;27;45448;-76
2023/08/19 10:21:43;;;;;;;;;4.00;4.00;;;;;30.14;42.81;101526.94;5077646;27;46023;-76
2023/08/19 10:24:08;;;;;;;;;3.67;3.67;;;;;30.14;42.53;101529.63;5076883;27;45307;-76
2023/08/19 10:26:34;;;;;;;;;6.67;5.33;;;;;30.12;42.05;101528.22;5059365;28;45325;-76
2023/08/19 10:29:03;;;;;;;;;4.00;4.00;;;;;30.20;42.57;101545.91;5059092;27;45578;-76
2023/08/19 10:31:29;;;;;;;;;5.33;5.33;;;;;30.19;42.64;101547.75;5076957;28;46539;-76
2023/08/19 10:33:55;;;;;;;;;6.00;5.00;;;;;30.10;42.68;101531.13;5077225;27;45320;-76
2023/08/19 10:36:25;;;;;;;;;4.00;4.00;;;;;30.19;42.41;101545.06;5077842;27;45484;-76
2023/08/19 10:38:56;;;;;;;;;5.00;5.00;;;;;30.17;42.56;101541.78;5077041;28;45271;-75
2023/08/19 10:41:24;;;;;;;;;5.00;5.00;;;;;30.21;42.49;101558.28;5077291;27;46518;-76
2023/08/19 10:44:01;;;;;;;;;6.00;5.00;;;;;30.17;42.60;101550.66;5077071;27;45309;-76
2023/08/19 10:46:32;;;;;;;;;4.67;4.67;;;;;30.20;42.24;101554.78;5076871;28;45352;-76
2023/08/19 10:48:57;;;;;;;;;5.00;5.00;;;;;30.17;42.52;101549.84;5077279;27;45440;-76
2023/08/19 10:51:53;;;;;;;;;5.00;5.00;;;;;30.20;42.57;101551.25;5076694;27;45801;-76
2023/08/19 10:54:26;;;;;;;;;5.67;4.00;;;;;30.18;42.25;101548.81;5056672;28;45280;-76
2023/08/19 10:57:05;;;;;;;;;3.67;3.67;;;;;30.16;42.76;101545.53;5056229;28;45317;-76
2023/08/19 10:59:33;;;;;;;;;3.00;3.00;;;;;30.11;42.39;101540.78;5055709;28;45267;-76
2023/08/19 11:01:59;;;;;;;;;3.00;3.00;;;;;30.17;42.61;101549.84;5038301;28;47317;-76
2023/08/19 11:04:25;;;;;;;;;5.67;5.67;;;;;30.18;42.43;101556.84;5056496;28;45353;-76
2023/08/19 11:06:54;;;;;;;;;5.67;5.67;;;;;30.15;42.59;101563.50;5056753;28;45344;-76
2023/08/19 11:09:22;;;;;;;;;3.00;3.00;;;;;30.18;42.53;101565.75;5062042;27;45670;-76
2023/08/19 11:11:48;;;;;;;;;5.00;5.00;;;;;30.13;42.41;101560.22;5058488;27;48206;-76
2023/08/19 11:14:17;;;;;;;;;2.67;2.67;;;;;30.16;42.79;101572.38;5076072;27;45344;-76
2023/08/19 11:16:50;;;;;;;;;3.67;3.67;;;;;30.12;42.61;101566.59;5058726;28;45378;-76
2023/08/19 11:19:16;;;;;;;;;3.67;3.67;;;;;30.12;42.53;101560.41;5058431;28;45516;-76